logo tempoitalia

Diretta Meteo Curtin-Derby, Australialunedì 31 agosto ore 13:00

Mappa
Sereno 36 °C Sereno 24 Ore: T.min 20 T.max 36
Ponente Est/Nord-Est Km/h 20.3 Punto di rugiada: 8 °C Umidità: 18% Visibilità: 10 Km
Il sole sorge alle: 05:52 Il sole tramonta alle: 17:37
31 Agosto 2026 13:00 tempo osservato: Sereno Sereno 36 18 1015 vento: Nord E/NE 20.3
31 Agosto 2026 12:30 tempo osservato: Sereno Sereno 36 20 1015 vento: Nord E 18.5
31 Agosto 2026 12:00 tempo osservato: Sereno Sereno 35 21 1016 vento: Nord NE 16.7
31 Agosto 2026 11:30 tempo osservato: Sereno Sereno 35 20 1016 vento: Nord NE 20.3
31 Agosto 2026 11:00 tempo osservato: Sereno Sereno 34 20 1017 vento: Nord NE 14.8
31 Agosto 2026 10:30 tempo osservato: Sereno Sereno 34 18 1017 vento: Nord E/NE 18.5
31 Agosto 2026 10:00 tempo osservato: Sereno Sereno 33 18 1017 vento: Nord E/NE 16.7
31 Agosto 2026 09:30 tempo osservato: Sereno Sereno 32 21 1018 vento: Nord E 14.8
31 Agosto 2026 09:00 tempo osservato: Sereno Sereno 30 22 1018 vento: Nord E 16.7
31 Agosto 2026 08:30 tempo osservato: Sereno Sereno 30 27 1018 vento: Nord E/SE 14.8
31 Agosto 2026 08:00 tempo osservato: Sereno Sereno 27 36 1017 vento: Nord S/SE 14.8
31 Agosto 2026 07:30 tempo osservato: Sereno Sereno 26 39 1017 vento: Nord S 18.5
31 Agosto 2026 07:00 tempo osservato: Sereno Sereno 24 43 1017 vento: Nord S 16.7
31 Agosto 2026 06:30 tempo osservato: Sereno Sereno 22 49 1017 vento: Nord S 16.7
31 Agosto 2026 06:00 tempo osservato: Sereno Sereno 22 49 1016 vento: Nord S 18.5
31 Agosto 2026 05:30 tempo osservato: Sereno Sereno 21 52 1016 vento: Nord S 16.7
31 Agosto 2026 05:00 tempo osservato: Sereno Sereno 22 49 1016 vento: Nord S 18.5
31 Agosto 2026 04:30 tempo osservato: Sereno Sereno 21 52 1016 vento: Nord S 16.7
31 Agosto 2026 04:00 tempo osservato: Sereno Sereno 22 46 1016 vento: Nord S 20.3
31 Agosto 2026 03:30 tempo osservato: Sereno Sereno 20 56 1015 vento: Nord S 16.7
31 Agosto 2026 03:00 tempo osservato: Sereno Sereno 21 52 1015 vento: Nord S 14.8
31 Agosto 2026 02:30 tempo osservato: Sereno Sereno 21 52 1015 vento: Nord S 14.8
31 Agosto 2026 02:00 tempo osservato: Sereno Sereno 22 53 1016 vento: Nord S 14.8
31 Agosto 2026 01:30 tempo osservato: Sereno Sereno 22 53 1016 vento: Nord S 16.7
31 Agosto 2026 01:00 tempo osservato: Sereno Sereno 22 53 1016 vento: Nord S 16.7
31 Agosto 2026 00:30 tempo osservato: Sereno Sereno 22 53 1016 vento: Nord S 14.8
31 Agosto 2026 00:00 tempo osservato: Sereno Sereno 21 52 1016 vento: Nord S 13
30 Agosto 2026 23:30 tempo osservato: Sereno Sereno 21 56 1016 vento: Nord S 13
30 Agosto 2026 23:00 tempo osservato: Sereno Sereno 22 49 1016 vento: Nord S/SO 13
30 Agosto 2026 22:30 tempo osservato: Sereno Sereno 23 46 1016 vento: Nord S/SO 13
30 Agosto 2026 22:00 tempo osservato: Sereno Sereno 24 43 1016 vento: Nord S/SO 13
30 Agosto 2026 21:30 tempo osservato: Sereno Sereno 24 43 1016 vento: Nord SO 14.8
30 Agosto 2026 21:00 tempo osservato: Sereno Sereno 24 43 1016 vento: Nord SO 13
30 Agosto 2026 20:30 tempo osservato: Sereno Sereno 26 39 1016 vento: Nord O 13
30 Agosto 2026 20:00 tempo osservato: Sereno Sereno 22 46 1015 vento: Nord O 7.4
30 Agosto 2026 19:30 tempo osservato: Sereno Sereno 23 46 1015 vento: Nord N 5.5
30 Agosto 2026 19:00 tempo osservato: Sereno Sereno 24 43 1015 vento: Nord O/NO 7.4
30 Agosto 2026 18:30 tempo osservato: Sereno Sereno 25 38 1014 vento: Nord N/NO 7.4
30 Agosto 2026 18:00 tempo osservato: Sereno Sereno 29 32 1014 vento: Nord NO 7.4
30 Agosto 2026 17:30 tempo osservato: Sereno Sereno 31 27 1013 vento: Nord NO 11.1
30 Agosto 2026 17:00 tempo osservato: Sereno Sereno 33 24 1013 vento: Nord O/NO 13
30 Agosto 2026 16:30 tempo osservato: Sereno Sereno 34 23 1013 vento: Nord O/NO 16.7
30 Agosto 2026 16:00 tempo osservato: Sereno Sereno 35 21 1013 vento: Nord O/NO 16.7
30 Agosto 2026 15:30 tempo osservato: Sereno Sereno 36 19 1013 vento: Nord N 3.7
30 Agosto 2026 15:00 tempo osservato: Sereno Sereno 36 19 1013 vento: Nord E 11.1
30 Agosto 2026 14:30 tempo osservato: Sereno Sereno 35 21 1013 vento: Nord NE 11.1
30 Agosto 2026 14:00 tempo osservato: Sereno Sereno 35 21 1013 vento: Nord N/NE 14.8